Aérodrome :
LOGIN :

S'inscrire | Disclaimer

   EN    FR    IT 

 










Légende :    VFR   VFR Marginal   IFR   IFR Intensif   IFR Très Intensif
Visi : 
Plafond : 
>= 8 km
>= 3000ft
5 à 8 km
1000 à 3000 ft
1500m à 5 km
500 à 1000 ft
800 à 1500m
200 à 500 ft
< 800m
< 200 ft
Symboles :   Orages  Brouillard  Fortes neiges  Fortes précipitations  Vent > 20 kt
SIGMETs :   Divers  Orages  Givrage  Turbulence  Onde Orograph.  Cendres Volcan.






- Altitude de l'aérodrome : 82 ft
- Code IATA : AAR


EKAH - Aarhus Tirstrup

DERNIER METAR :
  • 220450Z AUTO 10013KT 6000NDV -RA BKN006/// 08/08 Q1009

METARs EXPIRÉS :
  • 220420Z AUTO 10014KT 6000NDV -RA OVC005/// 08/08 Q1009
  • 220350Z AUTO 10012G23KT 080V140 9999NDV -RA OVC005/// 09/08 Q1009
  • 220320Z AUTO 11012KT 070V130 9999NDV OVC005/// 09/08 Q1009
  • 220250Z AUTO 10012KT 9999NDV OVC005/// 08/08 Q1010
  • 220220Z AUTO 10012KT 9999NDV OVC005/// 08/08 Q1010

TAF TAF EKAH
Valide du 22 à 00h jusqu'au 23 à 00h UTC


212313Z 2200/2224 09010KT 2000 BR BKN001
TEMPO 2200/2212 6000 NSW BKN008
BECMG 2212/2214 16008KT 6000 NSW BKN020
TEMPO 2214/2217 BKN012
BECMG 2217/2219 BKN012
TEMPO 2219/2224 BKN008



MET'MAP, la Météo Aéronautique d'un coup d'oeil ! - Copyright ORBIFLY Décembre 2007 - Disclaimer

ORBIFLY MET'MAP TEAM :

Programmation & Développement : Alexandra Zaïnal
Conception & Développement : Baudouin d'Aumeries
Co-Programmation & Développement : Marc-Olivier Méhu
Soutien technique & logistique : Manuel Goepfert

Contact : metmap@orbifly.com




SOURCES & CREDITS :

   NOAA